Time;durP1;ratioP1;P1;durP2;ratioP2;P2;SDS_P1;SDS_P2;PMS_P1;PMS_P2;Temp;Humidity;BMP_temperature;BMP_pressure;BME280_temperature;BME280_humidity;BME280_pressure;Samples;Min_cycle;Max_cycle;Signal;HPM_P1;HPM_P2
2022/12/06 00:00:40;;;;;;;11.32;4.47;;;;;;;;;;5049777;28;20065;-69
2022/12/06 00:03:07;;;;;;;8.38;4.93;;;;;;;;;;5059530;28;20053;-69
2022/12/06 00:05:33;;;;;;;8.95;4.78;;;;;;;;;;5051015;28;20052;-69
2022/12/06 00:08:00;;;;;;;10.00;4.70;;;;;;;;;;5066637;28;20420;-69
2022/12/06 00:10:26;;;;;;;9.88;4.85;;;;;;;;;;5054439;28;20468;-70
2022/12/06 00:12:52;;;;;;;11.57;4.55;;;;;;;;;;5049654;28;20053;-69
2022/12/06 00:15:19;;;;;;;8.18;4.47;;;;;;;;;;5058439;28;20573;-69
2022/12/06 00:17:45;;;;;;;9.43;4.82;;;;;;;;;;5043548;28;20524;-69
2022/12/06 00:20:12;;;;;;;10.80;4.97;;;;;;;;;;5056808;28;20536;-69
2022/12/06 00:22:42;;;;;;;11.75;5.28;;;;;;;;;;5072956;28;20143;-69
2022/12/06 00:25:09;;;;;;;8.73;5.10;;;;;;;;;;5078877;28;20053;-69
2022/12/06 00:27:35;;;;;;;7.30;4.05;;;;;;;;;;5060097;28;20053;-70
2022/12/06 00:30:02;;;;;;;10.57;4.18;;;;;;;;;;5051698;28;20057;-69
2022/12/06 00:32:29;;;;;;;12.38;4.75;;;;;;;;;;5051374;28;20562;-69
2022/12/06 00:34:55;;;;;;;11.13;4.82;;;;;;;;;;5061009;28;20049;-69
2022/12/06 00:37:21;;;;;;;15.50;5.32;;;;;;;;;;5049215;28;20146;-69
2022/12/06 00:39:48;;;;;;;12.18;4.53;;;;;;;;;;5063837;28;20055;-69
2022/12/06 00:42:14;;;;;;;8.82;4.18;;;;;;;;;;5062782;28;20041;-69
2022/12/06 00:44:40;;;;;;;13.45;5.30;;;;;;;;;;5061952;28;20572;-70
2022/12/06 00:47:07;;;;;;;10.75;5.40;;;;;;;;;;5063098;28;20045;-69
2022/12/06 00:49:33;;;;;;;7.72;4.30;;;;;;;;;;5060347;28;20144;-69
2022/12/06 00:51:59;;;;;;;14.10;5.03;;;;;;;;;;5057638;28;20143;-70
2022/12/06 00:54:26;;;;;;;12.18;4.80;;;;;;;;;;5059066;28;20793;-70
2022/12/06 00:56:52;;;;;;;9.20;4.75;;;;;;;;;;5042834;28;20053;-70
2022/12/06 00:59:18;;;;;;;12.88;4.47;;;;;;;;;;5054125;28;20126;-69
2022/12/06 01:01:45;;;;;;;8.70;4.55;;;;;;;;;;5059186;28;20570;-69
2022/12/06 01:04:11;;;;;;;9.15;5.30;;;;;;;;;;5042237;28;20057;-69
2022/12/06 01:06:37;;;;;;;10.75;4.60;;;;;;;;;;5056491;28;20519;-69
2022/12/06 01:09:06;;;;;;;11.68;4.70;;;;;;;;;;5060030;28;20519;-69
2022/12/06 01:11:32;;;;;;;12.65;4.78;;;;;;;;;;5043035;28;20148;-69
2022/12/06 01:14:00;;;;;;;10.85;4.82;;;;;;;;;;5049072;28;20064;-69
2022/12/06 01:16:28;;;;;;;10.27;5.10;;;;;;;;;;5062735;28;20144;-69
2022/12/06 01:18:59;;;;;;;13.90;5.10;;;;;;;;;;5074058;28;20051;-69
2022/12/06 01:21:26;;;;;;;9.45;4.28;;;;;;;;;;5050299;28;20057;-69
2022/12/06 01:23:53;;;;;;;13.77;4.03;;;;;;;;;;5049523;28;20053;-70
2022/12/06 01:26:21;;;;;;;10.15;4.25;;;;;;;;;;5061548;28;20466;-70
2022/12/06 01:28:47;;;;;;;9.68;3.50;;;;;;;;;;5062117;28;20055;-69
2022/12/06 01:31:14;;;;;;;10.88;4.15;;;;;;;;;;5074754;28;20053;-70
2022/12/06 01:33:41;;;;;;;12.13;4.32;;;;;;;;;;5051006;28;20060;-70
2022/12/06 01:36:08;;;;;;;10.13;3.88;;;;;;;;;;5043825;28;20053;-70
2022/12/06 01:38:34;;;;;;;9.38;4.72;;;;;;;;;;5057807;28;20057;-70
2022/12/06 01:41:00;;;;;;;13.20;3.95;;;;;;;;;;5061692;28;20053;-70
2022/12/06 01:43:34;;;;;;;13.80;3.97;;;;;;;;;;5055729;28;20059;-70
2022/12/06 01:46:14;;;;;;;7.00;3.47;;;;;;;;;;5062087;28;20057;-70
2022/12/06 01:48:40;;;;;;;9.57;4.00;;;;;;;;;;5051571;28;20135;-69
2022/12/06 01:51:09;;;;;;;8.77;3.70;;;;;;;;;;5050889;28;20065;-70
2022/12/06 01:53:36;;;;;;;15.43;4.70;;;;;;;;;;5053512;28;20508;-70
2022/12/06 01:56:03;;;;;;;13.23;4.30;;;;;;;;;;5055213;28;20053;-69
2022/12/06 01:58:32;;;;;;;12.52;4.13;;;;;;;;;;5043237;28;20049;-69
2022/12/06 02:00:59;;;;;;;15.60;4.25;;;;;;;;;;5060273;28;20049;-69
2022/12/06 02:03:27;;;;;;;8.63;3.25;;;;;;;;;;5067311;28;20053;-70
2022/12/06 02:05:54;;;;;;;10.48;4.13;;;;;;;;;;5046309;28;20123;-70
2022/12/06 02:08:21;;;;;;;8.55;3.78;;;;;;;;;;5055264;28;20057;-69
2022/12/06 02:10:48;;;;;;;8.10;3.95;;;;;;;;;;5048731;28;20052;-69
2022/12/06 02:13:14;;;;;;;7.93;3.92;;;;;;;;;;5062362;28;20045;-69
2022/12/06 02:15:40;;;;;;;9.20;4.05;;;;;;;;;;5067880;28;20567;-69
2022/12/06 02:18:12;;;;;;;19.05;4.03;;;;;;;;;;5077818;28;20147;-69
2022/12/06 02:20:48;;;;;;;15.32;3.90;;;;;;;;;;5074929;28;20420;-69
2022/12/06 02:23:14;;;;;;;;;;;;;;;;;;5064424;28;20048;-69
2022/12/06 02:25:40;;;;;;;;;;;;;;;;;;5065178;28;46670;-69
2022/12/06 02:28:08;;;;;;;5.78;3.20;;;;;;;;;;5065770;28;46944;-69
2022/12/06 02:30:42;;;;;;;11.13;3.08;;;;;;;;;;5060242;28;20503;-69
2022/12/06 02:33:20;;;;;;;8.32;4.15;;;;;;;;;;5063700;28;20053;-69
2022/12/06 02:35:51;;;;;;;13.25;3.75;;;;;;;;;;5051505;28;20080;-70
2022/12/06 02:38:17;;;;;;;12.95;3.90;;;;;;;;;;5061281;28;20057;-70
2022/12/06 02:40:46;;;;;;;11.48;3.97;;;;;;;;;;5065230;28;20060;-69
2022/12/06 02:43:16;;;;;;;11.10;3.70;;;;;;;;;;5061425;28;20056;-69
2022/12/06 02:45:44;;;;;;;5.50;3.40;;;;;;;;;;5057527;28;20144;-68
2022/12/06 02:48:11;;;;;;;8.48;3.25;;;;;;;;;;5057990;28;20068;-69
2022/12/06 02:50:40;;;;;;;10.98;3.40;;;;;;;;;;5056275;28;20495;-69
2022/12/06 02:53:09;;;;;;;5.78;2.47;;;;;;;;;;5055234;28;20060;-70
2022/12/06 02:55:36;;;;;;;9.95;3.65;;;;;;;;;;5057297;28;20104;-69
2022/12/06 02:58:02;;;;;;;5.60;3.05;;;;;;;;;;5060478;28;20553;-69
2022/12/06 03:00:28;;;;;;;9.48;3.00;;;;;;;;;;5044563;28;20056;-69
2022/12/06 03:03:03;;;;;;;10.98;3.20;;;;;;;;;;5048710;28;20062;-69
2022/12/06 03:05:34;;;;;;;5.57;2.80;;;;;;;;;;5044517;28;20423;-69
2022/12/06 03:08:06;;;;;;;6.28;3.20;;;;;;;;;;5045624;28;20492;-69
2022/12/06 03:10:34;;;;;;;9.93;3.47;;;;;;;;;;5062660;28;20044;-70
2022/12/06 03:13:01;;;;;;;6.80;2.65;;;;;;;;;;5063414;28;20139;-69
2022/12/06 03:15:27;;;;;;;10.85;3.33;;;;;;;;;;5058786;28;20053;-69
2022/12/06 03:17:59;;;;;;;7.63;3.25;;;;;;;;;;5058230;28;20136;-69
2022/12/06 03:20:41;;;;;;;7.63;3.25;;;;;;;;;;5069987;28;20532;-69
2022/12/06 03:23:10;;;;;;;4.95;2.67;;;;;;;;;;5059612;28;20554;-69
2022/12/06 03:25:37;;;;;;;5.07;2.72;;;;;;;;;;5064361;28;20045;-70
2022/12/06 03:28:05;;;;;;;6.38;2.72;;;;;;;;;;5056472;28;20049;-69
2022/12/06 03:30:33;;;;;;;8.40;2.45;;;;;;;;;;5045476;28;20061;-69
2022/12/06 03:32:59;;;;;;;11.45;2.63;;;;;;;;;;5049394;28;20056;-69
2022/12/06 03:35:27;;;;;;;11.38;2.75;;;;;;;;;;5056366;28;20533;-70
2022/12/06 03:37:56;;;;;;;5.72;2.92;;;;;;;;;;5062197;28;20766;-69
2022/12/06 03:40:25;;;;;;;4.53;2.67;;;;;;;;;;5063178;28;20056;-70
2022/12/06 03:42:51;;;;;;;4.03;2.72;;;;;;;;;;5063176;28;20057;-69
2022/12/06 03:45:18;;;;;;;5.15;2.50;;;;;;;;;;5064690;28;20160;-69
2022/12/06 03:48:08;;;;;;;5.50;2.33;;;;;;;;;;5073997;28;20081;-69
2022/12/06 03:50:38;;;;;;;5.45;2.22;;;;;;;;;;5044214;28;20045;-70
2022/12/06 03:53:04;;;;;;;4.45;2.58;;;;;;;;;;5052490;28;20052;-70
2022/12/06 03:55:31;;;;;;;7.25;2.50;;;;;;;;;;5062315;28;20507;-69
2022/12/06 03:57:57;;;;;;;3.03;1.88;;;;;;;;;;5048720;28;20435;-70
2022/12/06 04:00:24;;;;;;;10.35;2.38;;;;;;;;;;5044413;28;20063;-70
2022/12/06 04:02:50;;;;;;;4.53;2.30;;;;;;;;;;5058391;28;20412;-70
2022/12/06 04:05:17;;;;;;;4.53;2.30;;;;;;;;;;5062934;28;20057;-70
2022/12/06 04:07:43;;;;;;;4.38;2.45;;;;;;;;;;5059436;28;20526;-70
2022/12/06 04:10:10;;;;;;;3.72;2.13;;;;;;;;;;5054556;28;20057;-70
2022/12/06 04:15:22;;;;;;;9.05;2.28;;;;;;;;;;5063584;28;20049;-69
2022/12/06 04:23:19;;;;;;;3.58;2.20;;;;;;;;;;5060753;28;20052;-70
2022/12/06 04:25:45;;;;;;;6.07;2.90;;;;;;;;;;5062959;28;20139;-70
2022/12/06 04:39:17;;;;;;;2.45;1.95;;;;;;;;;;5058125;28;20079;-69
2022/12/06 04:44:31;;;;;;;6.07;2.30;;;;;;;;;;5062686;28;20041;-70
2022/12/06 04:46:58;;;;;;;3.35;1.98;;;;;;;;;;5061442;28;20576;-70
2022/12/06 04:49:25;;;;;;;4.45;1.88;;;;;;;;;;5057311;28;20050;-70
2022/12/06 04:51:52;;;;;;;6.40;2.53;;;;;;;;;;5060159;28;20053;-70
2022/12/06 04:54:18;;;;;;;13.27;2.90;;;;;;;;;;5062418;28;20045;-71
2022/12/06 04:56:45;;;;;;;7.25;1.83;;;;;;;;;;5062937;28;20052;-70
2022/12/06 04:59:11;;;;;;;8.70;2.40;;;;;;;;;;5059050;28;20154;-70
2022/12/06 05:01:37;;;;;;;3.33;2.13;;;;;;;;;;5062207;28;20063;-70
2022/12/06 05:04:04;;;;;;;4.20;1.75;;;;;;;;;;5051312;28;20092;-70
2022/12/06 05:06:30;;;;;;;6.80;2.20;;;;;;;;;;5051270;28;20107;-70
2022/12/06 05:08:57;;;;;;;3.72;2.13;;;;;;;;;;5042288;28;20050;-70
2022/12/06 05:11:23;;;;;;;3.65;1.90;;;;;;;;;;5044868;28;20197;-70
2022/12/06 05:13:49;;;;;;;5.80;2.05;;;;;;;;;;5062121;28;20071;-70
2022/12/06 05:16:15;;;;;;;5.30;2.20;;;;;;;;;;5060970;28;20045;-70
2022/12/06 05:18:42;;;;;;;8.55;2.40;;;;;;;;;;5042661;28;20056;-70
2022/12/06 05:21:16;;;;;;;3.65;1.83;;;;;;;;;;5042176;28;20060;-70
2022/12/06 05:23:42;;;;;;;3.45;2.08;;;;;;;;;;5054561;28;20045;-70
2022/12/06 05:26:13;;;;;;;5.88;1.98;;;;;;;;;;5062911;28;20147;-70
2022/12/06 05:28:39;;;;;;;3.15;2.00;;;;;;;;;;5061056;28;20053;-70
2022/12/06 05:31:06;;;;;;;4.60;2.28;;;;;;;;;;5042566;28;20049;-70
2022/12/06 05:33:32;;;;;;;4.93;2.47;;;;;;;;;;5049545;28;20144;-70
2022/12/06 05:36:04;;;;;;;7.72;2.05;;;;;;;;;;5056849;28;20160;-70
2022/12/06 05:38:31;;;;;;;4.28;2.00;;;;;;;;;;5063109;28;20053;-69
2022/12/06 05:40:57;;;;;;;9.95;1.83;;;;;;;;;;5061769;28;20049;-70
2022/12/06 05:43:24;;;;;;;4.05;1.77;;;;;;;;;;5050740;28;20057;-70
2022/12/06 05:45:53;;;;;;;4.80;2.53;;;;;;;;;;5061570;28;20063;-69
2022/12/06 05:48:20;;;;;;;3.67;1.75;;;;;;;;;;5062542;28;20057;-69
2022/12/06 05:50:46;;;;;;;4.32;1.80;;;;;;;;;;5060194;28;20068;-70
2022/12/06 05:53:13;;;;;;;4.82;1.85;;;;;;;;;;5066683;28;20060;-70
2022/12/06 05:55:40;;;;;;;5.38;2.13;;;;;;;;;;5049102;28;20061;-70
2022/12/06 05:58:07;;;;;;;5.43;2.58;;;;;;;;;;5085603;28;20447;-70
2022/12/06 06:00:33;;;;;;;7.10;1.92;;;;;;;;;;5051880;28;20059;-69
2022/12/06 06:03:00;;;;;;;6.35;1.95;;;;;;;;;;5057554;28;20056;-70
2022/12/06 06:05:26;;;;;;;7.10;2.78;;;;;;;;;;5087572;28;20093;-70
2022/12/06 06:07:53;;;;;;;3.92;2.45;;;;;;;;;;5064620;28;20075;-70
2022/12/06 06:10:20;;;;;;;7.53;2.53;;;;;;;;;;5064714;28;20052;-70
2022/12/06 06:12:46;;;;;;;3.10;1.88;;;;;;;;;;5059009;28;20137;-70
2022/12/06 06:15:13;;;;;;;7.75;2.67;;;;;;;;;;5048263;28;20045;-70
2022/12/06 06:17:40;;;;;;;3.13;2.17;;;;;;;;;;5057765;28;20049;-70
2022/12/06 06:20:07;;;;;;;4.97;2.13;;;;;;;;;;5045496;28;20168;-70
2022/12/06 06:22:35;;;;;;;6.25;2.20;;;;;;;;;;5045181;28;20058;-70
2022/12/06 06:25:01;;;;;;;3.72;1.90;;;;;;;;;;5052934;28;20080;-70
2022/12/06 06:27:31;;;;;;;4.47;2.10;;;;;;;;;;5061935;28;20056;-69
2022/12/06 06:29:57;;;;;;;2.25;2.03;;;;;;;;;;5045225;28;20076;-69
2022/12/06 06:32:24;;;;;;;4.32;2.22;;;;;;;;;;5062604;28;20559;-69
2022/12/06 06:34:51;;;;;;;6.47;2.13;;;;;;;;;;5045427;28;20062;-69
2022/12/06 06:37:17;;;;;;;4.60;2.10;;;;;;;;;;5046943;28;20064;-69
2022/12/06 06:39:43;;;;;;;9.15;2.63;;;;;;;;;;5065087;28;20052;-69
2022/12/06 06:42:10;;;;;;;4.65;2.05;;;;;;;;;;5068517;28;20052;-69
2022/12/06 06:44:36;;;;;;;4.63;2.08;;;;;;;;;;5057713;28;20492;-69
2022/12/06 06:47:02;;;;;;;9.38;3.13;;;;;;;;;;5060411;28;20106;-70
2022/12/06 06:49:28;;;;;;;6.13;2.40;;;;;;;;;;5065000;28;20777;-70
2022/12/06 06:51:55;;;;;;;4.32;1.92;;;;;;;;;;5066580;28;20092;-69
2022/12/06 06:54:22;;;;;;;3.47;2.47;;;;;;;;;;5063608;28;20060;-70
2022/12/06 06:56:48;;;;;;;4.72;1.70;;;;;;;;;;5063074;28;20056;-70
2022/12/06 06:59:15;;;;;;;4.72;1.70;;;;;;;;;;5062331;28;20530;-70
2022/12/06 07:01:41;;;;;;;3.90;2.00;;;;;;;;;;5086606;27;20053;-70
2022/12/06 07:04:08;;;;;;;4.07;2.20;;;;;;;;;;5081954;28;20047;-70
2022/12/06 07:06:34;;;;;;;3.53;2.17;;;;;;;;;;5068942;28;20037;-70
2022/12/06 07:09:01;;;;;;;3.03;1.80;;;;;;;;;;5051039;28;20080;-69
2022/12/06 07:11:27;;;;;;;5.85;2.10;;;;;;;;;;5066844;28;20052;-69
2022/12/06 07:13:53;;;;;;;5.78;2.67;;;;;;;;;;5063806;28;20521;-69
2022/12/06 07:16:20;;;;;;;4.07;2.30;;;;;;;;;;5065712;28;20044;-69
2022/12/06 07:18:46;;;;;;;3.72;1.92;;;;;;;;;;5062276;28;20096;-69
2022/12/06 07:21:14;;;;;;;4.22;2.25;;;;;;;;;;5071768;28;20106;-69
2022/12/06 07:23:40;;;;;;;3.63;2.13;;;;;;;;;;5068907;28;20053;-69
2022/12/06 07:26:14;;;;;;;10.38;2.95;;;;;;;;;;5070249;28;20075;-69
2022/12/06 07:28:42;;;;;;;6.97;2.50;;;;;;;;;;5064178;28;20054;-69
2022/12/06 07:31:10;;;;;;;8.85;2.05;;;;;;;;;;5057058;28;20083;-69
2022/12/06 07:33:37;;;;;;;6.50;2.00;;;;;;;;;;5063973;28;20199;-68
2022/12/06 07:36:03;;;;;;;10.40;2.92;;;;;;;;;;5063901;28;20048;-69
2022/12/06 07:38:39;;;;;;;5.75;2.08;;;;;;;;;;5068555;28;20167;-68
2022/12/06 07:44:59;;;;;;;4.57;2.20;;;;;;;;;;5061199;28;20056;-69
2022/12/06 07:46:39;;;;;;;5.13;2.20;;;;;;;;;;5063588;28;20048;-69
2022/12/06 07:49:06;;;;;;;3.35;2.17;;;;;;;;;;5062844;28;20148;-70
2022/12/06 07:51:33;;;;;;;6.10;2.28;;;;;;;;;;5043994;28;20053;-69
2022/12/06 07:53:59;;;;;;;3.58;2.38;;;;;;;;;;5063596;28;20049;-68
2022/12/06 07:56:25;;;;;;;4.30;2.42;;;;;;;;;;5083398;28;20055;-69
2022/12/06 07:58:52;;;;;;;7.10;2.65;;;;;;;;;;5073725;28;20131;-69
2022/12/06 08:01:18;;;;;;;3.92;2.70;;;;;;;;;;5060788;28;20057;-69
2022/12/06 08:03:45;;;;;;;7.45;2.60;;;;;;;;;;5073845;28;20147;-70
2022/12/06 08:06:11;;;;;;;4.05;2.63;;;;;;;;;;5082574;28;20055;-70
2022/12/06 08:08:38;;;;;;;9.48;3.38;;;;;;;;;;5070980;28;20051;-71
2022/12/06 08:11:05;;;;;;;5.40;2.60;;;;;;;;;;5061999;28;20056;-71
2022/12/06 08:13:33;;;;;;;4.88;3.08;;;;;;;;;;5062357;28;20084;-70
2022/12/06 08:16:03;;;;;;;6.15;2.95;;;;;;;;;;5065313;28;20061;-69
2022/12/06 08:18:29;;;;;;;5.90;3.20;;;;;;;;;;5077349;28;20522;-71
2022/12/06 08:20:56;;;;;;;6.93;2.90;;;;;;;;;;5064803;28;20080;-70
2022/12/06 08:23:23;;;;;;;8.50;3.80;;;;;;;;;;5058695;28;20490;-70
2022/12/06 08:25:58;;;;;;;5.28;3.53;;;;;;;;;;5073665;28;20164;-72
2022/12/06 08:28:26;;;;;;;6.10;3.38;;;;;;;;;;5083117;28;20172;-71
2022/12/06 08:30:53;;;;;;;21.77;6.28;;;;;;;;;;5083473;28;20048;-71
2022/12/06 08:33:27;;;;;;;21.55;9.80;;;;;;;;;;5069167;28;20494;-71
2022/12/06 08:35:53;;;;;;;26.17;11.15;;;;;;;;;;5066297;28;20144;-71
2022/12/06 08:38:19;;;;;;;23.42;10.95;;;;;;;;;;5077798;28;20056;-71
2022/12/06 08:40:46;;;;;;;18.98;10.45;;;;;;;;;;5078067;28;20163;-71
2022/12/06 08:43:12;;;;;;;19.42;8.80;;;;;;;;;;5082533;28;20056;-71
2022/12/06 08:45:38;;;;;;;18.60;6.70;;;;;;;;;;5061032;28;20049;-71
2022/12/06 08:48:05;;;;;;;11.63;5.10;;;;;;;;;;5059352;28;20060;-70
2022/12/06 08:50:31;;;;;;;15.63;6.07;;;;;;;;;;5064380;28;20504;-71
2022/12/06 08:52:58;;;;;;;7.07;3.88;;;;;;;;;;5063059;28;20079;-70
2022/12/06 08:55:24;;;;;;;8.10;4.53;;;;;;;;;;5062118;28;20132;-70
2022/12/06 08:57:50;;;;;;;9.45;4.07;;;;;;;;;;5073341;28;20052;-72
2022/12/06 09:00:17;;;;;;;11.10;5.10;;;;;;;;;;5072101;28;20510;-71
2022/12/06 09:02:43;;;;;;;11.95;4.65;;;;;;;;;;5057923;28;20147;-71
2022/12/06 09:05:09;;;;;;;12.38;4.32;;;;;;;;;;5072042;28;20059;-72
2022/12/06 09:07:36;;;;;;;14.23;5.10;;;;;;;;;;5049871;28;20133;-72
2022/12/06 09:10:04;;;;;;;10.95;4.35;;;;;;;;;;5060915;28;20057;-72
2022/12/06 09:12:30;;;;;;;6.88;4.15;;;;;;;;;;5054962;28;20053;-70
2022/12/06 09:14:56;;;;;;;9.98;5.47;;;;;;;;;;5066767;28;20055;-70
2022/12/06 09:17:23;;;;;;;11.65;5.95;;;;;;;;;;5054737;28;20181;-70
2022/12/06 09:19:49;;;;;;;10.95;4.28;;;;;;;;;;5062492;28;20107;-70
2022/12/06 09:22:15;;;;;;;10.23;4.25;;;;;;;;;;5064995;28;20056;-70
2022/12/06 09:24:42;;;;;;;13.95;5.90;;;;;;;;;;5074323;28;20559;-71
2022/12/06 09:27:08;;;;;;;11.38;4.68;;;;;;;;;;5062432;28;20049;-70
2022/12/06 09:29:36;;;;;;;9.02;4.65;;;;;;;;;;5054825;28;20119;-71
2022/12/06 09:32:06;;;;;;;8.60;3.35;;;;;;;;;;5054650;28;20577;-72
2022/12/06 09:34:32;;;;;;;8.77;4.63;;;;;;;;;;5050882;28;20045;-71
2022/12/06 09:37:02;;;;;;;12.43;5.15;;;;;;;;;;5056999;28;20053;-71
2022/12/06 09:39:33;;;;;;;10.95;4.97;;;;;;;;;;5068446;28;20107;-72
2022/12/06 09:41:59;;;;;;;7.70;4.72;;;;;;;;;;5044267;28;20052;-72
2022/12/06 09:44:29;;;;;;;10.02;4.60;;;;;;;;;;5065285;28;20049;-70
2022/12/06 09:47:04;;;;;;;7.15;4.05;;;;;;;;;;5072601;28;20511;-71
2022/12/06 09:49:36;;;;;;;12.80;4.32;;;;;;;;;;5043670;28;20438;-71
2022/12/06 09:52:32;;;;;;;4.72;3.47;;;;;;;;;;5052817;28;20056;-73
2022/12/06 09:55:11;;;;;;;6.88;3.63;;;;;;;;;;5008672;28;20060;-70
2022/12/06 09:57:44;;;;;;;8.77;3.85;;;;;;;;;;5008471;28;20056;-72
2022/12/06 10:00:16;;;;;;;7.47;4.40;;;;;;;;;;5017621;28;20053;-70
2022/12/06 10:03:02;;;;;;;11.93;4.38;;;;;;;;;;5012023;28;20050;-70
2022/12/06 10:05:28;;;;;;;10.23;4.65;;;;;;;;;;5013997;28;20058;-70
2022/12/06 10:08:33;;;;;;;9.63;3.92;;;;;;;;;;5010093;28;20054;-69
2022/12/06 10:11:05;;;;;;;8.88;3.45;;;;;;;;;;5038543;28;20463;-71
2022/12/06 10:13:43;;;;;;;9.18;4.38;;;;;;;;;;5033623;28;20072;-69
2022/12/06 10:16:21;;;;;;;5.63;3.45;;;;;;;;;;5036496;28;20555;-70
2022/12/06 10:19:06;;;;;;;12.85;4.97;;;;;;;;;;5031699;28;20938;-71
2022/12/06 10:21:44;;;;;;;8.32;3.90;;;;;;;;;;5039957;28;20097;-70
2022/12/06 10:24:20;;;;;;;10.70;3.50;;;;;;;;;;5037812;28;21032;-70
2022/12/06 10:26:48;;;;;;;10.60;4.15;;;;;;;;;;5030233;28;20140;-69
2022/12/06 10:29:17;;;;;;;11.13;5.35;;;;;;;;;;5028673;28;20043;-70
2022/12/06 10:31:56;;;;;;;11.15;4.82;;;;;;;;;;5037825;28;20137;-70
2022/12/06 10:34:26;;;;;;;12.52;4.78;;;;;;;;;;5043356;28;20049;-70
2022/12/06 10:37:01;;;;;;;7.35;4.00;;;;;;;;;;5044994;28;20061;-69
2022/12/06 10:39:33;;;;;;;10.35;4.32;;;;;;;;;;5038102;28;20049;-69
2022/12/06 10:42:09;;;;;;;13.75;5.22;;;;;;;;;;5046832;28;20512;-70
2022/12/06 10:44:38;;;;;;;9.25;3.80;;;;;;;;;;5071206;28;20076;-69
2022/12/06 10:47:17;;;;;;;22.85;12.18;;;;;;;;;;5077653;28;20056;-68
2022/12/06 10:49:46;;;;;;;11.77;7.20;;;;;;;;;;5078266;28;20063;-69
2022/12/06 10:52:33;;;;;;;8.38;5.22;;;;;;;;;;5073402;28;20045;-69
2022/12/06 10:55:09;;;;;;;11.95;9.68;;;;;;;;;;5059125;28;20744;-69
2022/12/06 10:57:42;;;;;;;9.90;8.00;;;;;;;;;;5058750;28;20082;-69
2022/12/06 11:00:14;;;;;;;7.68;5.18;;;;;;;;;;5076447;28;20083;-69
2022/12/06 11:02:42;;;;;;;11.18;5.68;;;;;;;;;;5065886;28;20053;-69
2022/12/06 11:05:27;;;;;;;5.82;3.95;;;;;;;;;;5064284;28;20089;-69
2022/12/06 11:07:55;;;;;;;10.15;3.63;;;;;;;;;;5061546;28;20057;-70
2022/12/06 11:10:24;;;;;;;5.07;3.65;;;;;;;;;;5059507;28;20060;-69
2022/12/06 11:12:55;;;;;;;6.47;4.10;;;;;;;;;;5062709;28;20086;-69
2022/12/06 11:15:24;;;;;;;13.75;6.45;;;;;;;;;;5062195;28;20135;-70
2022/12/06 11:18:09;;;;;;;19.13;10.00;;;;;;;;;;5062236;28;20131;-69
2022/12/06 11:21:05;;;;;;;37.80;23.95;;;;;;;;;;5068592;28;20114;-69
2022/12/06 11:23:44;;;;;;;16.25;12.02;;;;;;;;;;5060480;28;20059;-69
2022/12/06 11:26:19;;;;;;;37.60;33.72;;;;;;;;;;5066958;28;20049;-69
2022/12/06 11:28:51;;;;;;;29.02;25.75;;;;;;;;;;5081951;28;20053;-69
2022/12/06 11:31:20;;;;;;;14.52;9.65;;;;;;;;;;5064954;28;20471;-69
2022/12/06 11:33:47;;;;;;;13.00;6.65;;;;;;;;;;5061777;28;20045;-69
2022/12/06 11:36:14;;;;;;;15.25;9.90;;;;;;;;;;5063867;28;20049;-69
2022/12/06 11:38:42;;;;;;;11.30;6.40;;;;;;;;;;5080196;28;20052;-68
2022/12/06 11:41:11;;;;;;;7.40;5.03;;;;;;;;;;5063622;28;20049;-69
2022/12/06 11:43:37;;;;;;;5.25;4.35;;;;;;;;;;5064256;28;20080;-69
2022/12/06 11:46:05;;;;;;;7.95;5.80;;;;;;;;;;5056891;28;20045;-70
2022/12/06 11:48:33;;;;;;;8.73;3.83;;;;;;;;;;5056192;28;20369;-69
2022/12/06 11:50:59;;;;;;;8.80;4.68;;;;;;;;;;5064886;28;20066;-71
2022/12/06 11:53:32;;;;;;;6.07;4.15;;;;;;;;;;5064312;28;20056;-70
2022/12/06 11:56:21;;;;;;;7.45;3.92;;;;;;;;;;5065146;28;21010;-70
2022/12/06 11:59:07;;;;;;;8.98;4.20;;;;;;;;;;5065024;28;20052;-70
2022/12/06 12:01:38;;;;;;;7.57;5.30;;;;;;;;;;5059014;28;20537;-70
2022/12/06 12:04:24;;;;;;;7.20;3.80;;;;;;;;;;5061144;28;20060;-69
2022/12/06 12:06:54;;;;;;;8.40;3.22;;;;;;;;;;5072941;28;20053;-69
2022/12/06 12:09:21;;;;;;;6.15;3.53;;;;;;;;;;5051324;28;20061;-70
2022/12/06 12:12:00;;;;;;;4.25;3.13;;;;;;;;;;5062995;28;20059;-69
2022/12/06 12:14:32;;;;;;;6.32;3.60;;;;;;;;;;5059475;28;20048;-69
2022/12/06 12:17:00;;;;;;;4.50;2.92;;;;;;;;;;5056824;28;20057;-71
2022/12/06 12:19:29;;;;;;;5.30;3.25;;;;;;;;;;5062089;28;20045;-70
2022/12/06 12:21:57;;;;;;;6.28;3.38;;;;;;;;;;5055335;28;20057;-70
2022/12/06 12:24:45;;;;;;;4.28;2.80;;;;;;;;;;5062444;28;20055;-70
2022/12/06 12:27:33;;;;;;;5.45;2.95;;;;;;;;;;5071494;28;20456;-70
2022/12/06 12:30:15;;;;;;;8.23;3.33;;;;;;;;;;5066039;28;20585;-70
2022/12/06 12:32:42;;;;;;;4.82;2.50;;;;;;;;;;5067669;28;20524;-72
2022/12/06 12:35:21;;;;;;;5.68;3.53;;;;;;;;;;5061858;28;20069;-71
2022/12/06 12:37:50;;;;;;;8.68;3.60;;;;;;;;;;5075143;28;20052;-70
2022/12/06 12:40:33;;;;;;;6.93;5.32;;;;;;;;;;5058564;28;20051;-71
2022/12/06 12:43:26;;;;;;;10.35;9.00;;;;;;;;;;5067547;28;20569;-70
2022/12/06 12:46:02;;;;;;;6.65;4.10;;;;;;;;;;5051477;28;20052;-70
2022/12/06 12:48:29;;;;;;;5.47;3.28;;;;;;;;;;5049618;28;20056;-70
2022/12/06 12:50:56;;;;;;;3.63;3.30;;;;;;;;;;5055821;28;20091;-71
2022/12/06 12:53:29;;;;;;;4.20;2.60;;;;;;;;;;5056841;28;20796;-70
2022/12/06 12:56:08;;;;;;;7.00;2.40;;;;;;;;;;5065254;28;20044;-71
2022/12/06 12:58:36;;;;;;;5.07;2.17;;;;;;;;;;5048849;28;20057;-71
2022/12/06 13:01:18;;;;;;;4.85;2.50;;;;;;;;;;5058995;28;20045;-71
2022/12/06 13:03:46;;;;;;;10.02;2.55;;;;;;;;;;5060517;28;20553;-71
2022/12/06 13:06:25;;;;;;;6.72;2.40;;;;;;;;;;5061593;28;20496;-71
2022/12/06 13:08:51;;;;;;;2.25;1.92;;;;;;;;;;5094053;27;20072;-71
2022/12/06 13:11:18;;;;;;;4.72;2.28;;;;;;;;;;5051768;28;20054;-71
2022/12/06 13:13:48;;;;;;;5.55;2.13;;;;;;;;;;5062575;28;20107;-71
2022/12/06 13:16:18;;;;;;;5.40;2.30;;;;;;;;;;5055451;28;20049;-70
2022/12/06 13:18:46;;;;;;;3.78;2.10;;;;;;;;;;5049768;28;20104;-71
2022/12/06 13:21:15;;;;;;;2.80;1.92;;;;;;;;;;5049970;28;20049;-70
2022/12/06 13:23:42;;;;;;;4.95;2.60;;;;;;;;;;5065907;28;20507;-70
2022/12/06 13:26:18;;;;;;;4.75;3.67;;;;;;;;;;5067300;28;20049;-70
2022/12/06 13:28:47;;;;;;;3.92;3.15;;;;;;;;;;5059093;28;20075;-69
2022/12/06 13:31:17;;;;;;;6.35;3.83;;;;;;;;;;5053741;28;20138;-69
2022/12/06 13:33:56;;;;;;;4.97;2.40;;;;;;;;;;5068113;28;20052;-69
2022/12/06 13:36:24;;;;;;;5.00;2.33;;;;;;;;;;5074817;28;20080;-68
2022/12/06 13:38:50;;;;;;;3.15;2.45;;;;;;;;;;5060265;28;20080;-69
2022/12/06 13:44:40;;;;;;;7.50;3.38;;;;;;;;;;5051406;28;20111;-69
2022/12/06 13:47:25;;;;;;;3.47;2.53;;;;;;;;;;5083732;28;20506;-69
2022/12/06 13:49:53;;;;;;;9.77;3.60;;;;;;;;;;5051733;28;20108;-69
2022/12/06 13:52:38;;;;;;;4.90;2.60;;;;;;;;;;5045049;28;20499;-69
2022/12/06 13:55:23;;;;;;;4.73;2.53;;;;;;;;;;5055200;28;20869;-70
2022/12/06 13:57:54;;;;;;;4.10;3.08;;;;;;;;;;5060503;28;20063;-71
2022/12/06 14:00:27;;;;;;;6.63;4.85;;;;;;;;;;5054664;28;20132;-70
2022/12/06 14:03:01;;;;;;;12.70;3.40;;;;;;;;;;5068704;28;20067;-69
2022/12/06 14:05:47;;;;;;;5.43;2.88;;;;;;;;;;5065752;28;20929;-70
2022/12/06 14:08:14;;;;;;;7.60;3.53;;;;;;;;;;5061665;28;20056;-70
2022/12/06 14:10:40;;;;;;;7.70;3.90;;;;;;;;;;5060326;28;20447;-70
2022/12/06 14:13:13;;;;;;;9.80;4.00;;;;;;;;;;5059386;28;20049;-71
2022/12/06 14:15:43;;;;;;;7.57;3.70;;;;;;;;;;5054604;28;20933;-70
2022/12/06 14:18:16;;;;;;;7.35;2.95;;;;;;;;;;5053720;28;20553;-71
2022/12/06 14:20:43;;;;;;;7.13;2.90;;;;;;;;;;5052731;28;20056;-71
2022/12/06 14:23:26;;;;;;;7.93;2.58;;;;;;;;;;5060169;28;20076;-70
2022/12/06 14:26:12;;;;;;;7.25;2.38;;;;;;;;;;5051062;28;20224;-71
2022/12/06 14:28:38;;;;;;;2.88;2.13;;;;;;;;;;5062792;28;20060;-70
2022/12/06 14:31:06;;;;;;;4.15;2.60;;;;;;;;;;5065736;28;20517;-70
2022/12/06 14:33:37;;;;;;;5.07;2.72;;;;;;;;;;5056411;28;20499;-70
2022/12/06 14:36:04;;;;;;;8.13;2.55;;;;;;;;;;5064452;28;20574;-70
2022/12/06 14:38:30;;;;;;;6.18;2.90;;;;;;;;;;5060266;28;20060;-70
2022/12/06 14:43:45;;;;;;;8.10;3.10;;;;;;;;;;5051832;28;20068;-69
2022/12/06 14:46:15;;;;;;;5.70;2.05;;;;;;;;;;5051662;28;20057;-70
2022/12/06 14:51:35;;;;;;;4.65;2.30;;;;;;;;;;5050153;28;21080;-70
2022/12/06 14:54:30;;;;;;;5.50;2.42;;;;;;;;;;5057498;28;20049;-70
2022/12/06 14:56:56;;;;;;;5.53;2.00;;;;;;;;;;5052708;28;20098;-70
2022/12/06 14:59:24;;;;;;;3.03;1.65;;;;;;;;;;5056067;28;20053;-70
2022/12/06 15:02:27;;;;;;;5.78;2.03;;;;;;;;;;5056430;28;21000;-71
2022/12/06 15:04:54;;;;;;;3.67;1.60;;;;;;;;;;5055404;28;20048;-69
2022/12/06 15:07:31;;;;;;;4.90;2.00;;;;;;;;;;5080989;28;20106;-69
2022/12/06 15:10:06;;;;;;;2.95;1.83;;;;;;;;;;5063516;28;20053;-69
2022/12/06 15:15:31;;;;;;;2.83;1.90;;;;;;;;;;5061192;28;20535;-70
2022/12/06 15:18:03;;;;;;;4.68;1.45;;;;;;;;;;5059063;28;20053;-70
2022/12/06 15:20:30;;;;;;;3.67;1.65;;;;;;;;;;5066468;28;20052;-71
2022/12/06 15:22:56;;;;;;;3.28;1.77;;;;;;;;;;5081528;28;20080;-71
2022/12/06 15:25:23;;;;;;;3.15;1.95;;;;;;;;;;5076653;28;20526;-69
2022/12/06 15:27:49;;;;;;;5.75;2.00;;;;;;;;;;5055149;28;20495;-71
2022/12/06 15:30:16;;;;;;;4.80;2.03;;;;;;;;;;5067938;28;20048;-71
2022/12/06 15:32:42;;;;;;;3.25;2.05;;;;;;;;;;5052686;28;20080;-71